Time;durP1;ratioP1;P1;durP2;ratioP2;P2;SDS_P1;SDS_P2;PMS_P1;PMS_P2;Temp;Humidity;BMP_temperature;BMP_pressure;BME280_temperature;BME280_humidity;BME280_pressure;Samples;Min_cycle;Max_cycle;Signal;HPM_P1;HPM_P2
2023/03/02 00:00:54;;;;;;;81.93;11.63;;;;;;;;;;4995170;28;20609;-61
2023/03/02 00:03:20;;;;;;;82.13;11.65;;;;;;;;;;4993806;28;20308;-60
2023/03/02 00:05:46;;;;;;;79.28;11.52;;;;;;;;;;4993077;28;20305;-60
2023/03/02 00:08:13;;;;;;;156.45;14.98;;;;;;;;;;4993566;28;20605;-61
2023/03/02 00:10:39;;;;;;;130.68;12.80;;;;;;;;;;4993501;28;20170;-62
2023/03/02 00:13:05;;;;;;;138.48;13.65;;;;;;;;;;4993637;28;20623;-59
2023/03/02 00:15:31;;;;;;;104.53;12.35;;;;;;;;;;4993582;28;20629;-60
2023/03/02 00:17:57;;;;;;;78.30;11.68;;;;;;;;;;4993394;28;20177;-60
2023/03/02 00:20:23;;;;;;;67.43;10.93;;;;;;;;;;4993139;28;20182;-59
2023/03/02 00:22:49;;;;;;;121.72;12.75;;;;;;;;;;4993850;28;20228;-61
2023/03/02 00:25:15;;;;;;;83.75;10.85;;;;;;;;;;4993212;28;20212;-60
2023/03/02 00:27:41;;;;;;;108.53;11.80;;;;;;;;;;4993370;28;20171;-60
2023/03/02 00:30:08;;;;;;;110.03;12.20;;;;;;;;;;4993314;28;20611;-60
2023/03/02 00:32:34;;;;;;;85.57;11.35;;;;;;;;;;4993747;28;20173;-62
2023/03/02 00:35:00;;;;;;;107.28;11.93;;;;;;;;;;4993384;28;20205;-61
2023/03/02 00:37:26;;;;;;;98.57;12.55;;;;;;;;;;4998730;28;20175;-60
2023/03/02 00:39:52;;;;;;;96.53;11.77;;;;;;;;;;4993118;28;20251;-61
2023/03/02 00:42:18;;;;;;;141.13;11.60;;;;;;;;;;4993466;28;20178;-57
2023/03/02 00:44:44;;;;;;;70.03;11.23;;;;;;;;;;4991786;28;20677;-61
2023/03/02 00:47:10;;;;;;;61.53;10.60;;;;;;;;;;4992949;28;20355;-61
2023/03/02 00:49:36;;;;;;;104.28;12.13;;;;;;;;;;4992783;28;20171;-61
2023/03/02 00:52:03;;;;;;;93.43;10.18;;;;;;;;;;4992949;28;20606;-59
2023/03/02 00:54:29;;;;;;;85.18;10.98;;;;;;;;;;4993060;28;20175;-61
2023/03/02 00:56:55;;;;;;;101.95;9.98;;;;;;;;;;4993121;28;20552;-59
2023/03/02 00:59:26;;;;;;;65.68;11.40;;;;;;;;;;4992822;28;20171;-60
2023/03/02 01:01:57;;;;;;;114.82;11.40;;;;;;;;;;4992697;28;20174;-57
2023/03/02 01:04:24;;;;;;;87.15;11.52;;;;;;;;;;4992837;28;20203;-59
2023/03/02 01:06:50;;;;;;;86.63;11.25;;;;;;;;;;4993013;28;20438;-58
2023/03/02 01:09:16;;;;;;;129.30;11.02;;;;;;;;;;4992997;28;20174;-59
2023/03/02 01:11:42;;;;;;;110.50;12.20;;;;;;;;;;4992852;28;20171;-59
2023/03/02 01:14:08;;;;;;;147.90;13.60;;;;;;;;;;4993188;28;20625;-59
2023/03/02 01:16:34;;;;;;;95.90;10.75;;;;;;;;;;4992911;28;20598;-60
2023/03/02 01:19:00;;;;;;;66.47;10.10;;;;;;;;;;4992698;28;20614;-62
2023/03/02 01:21:26;;;;;;;78.93;10.65;;;;;;;;;;4992609;28;20547;-61
2023/03/02 01:23:52;;;;;;;109.28;11.88;;;;;;;;;;4992351;28;20575;-62
2023/03/02 01:26:17;;;;;;;129.65;13.98;;;;;;;;;;4992404;28;20159;-60
2023/03/02 01:28:43;;;;;;;144.70;12.75;;;;;;;;;;4993489;28;20206;-61
2023/03/02 01:31:09;;;;;;;116.80;12.73;;;;;;;;;;4992591;28;20229;-60
2023/03/02 01:33:35;;;;;;;86.05;11.20;;;;;;;;;;4992652;28;20163;-60
2023/03/02 01:36:01;;;;;;;77.95;9.88;;;;;;;;;;4991969;28;20183;-58
2023/03/02 01:38:28;;;;;;;124.55;12.63;;;;;;;;;;4992559;28;20163;-61
2023/03/02 01:40:54;;;;;;;80.72;11.27;;;;;;;;;;4992732;28;20198;-60
2023/03/02 01:43:20;;;;;;;119.45;12.15;;;;;;;;;;4993262;28;20182;-60
2023/03/02 01:45:46;;;;;;;88.50;10.32;;;;;;;;;;4992567;28;20187;-62
2023/03/02 01:48:12;;;;;;;112.20;12.23;;;;;;;;;;4992006;28;20198;-62
2023/03/02 01:50:39;;;;;;;77.18;10.23;;;;;;;;;;4992201;28;20167;-61
2023/03/02 01:53:05;;;;;;;71.93;8.90;;;;;;;;;;4992074;28;20167;-61
2023/03/02 01:55:32;;;;;;;51.13;9.52;;;;;;;;;;4992515;28;20537;-59
2023/03/02 01:57:59;;;;;;;49.33;8.10;;;;;;;;;;5002962;28;20182;-61
2023/03/02 02:00:28;;;;;;;60.53;8.88;;;;;;;;;;4996719;28;20592;-60
2023/03/02 02:02:54;;;;;;;77.47;10.57;;;;;;;;;;4995155;28;20597;-59
2023/03/02 02:05:25;;;;;;;73.55;9.77;;;;;;;;;;4995023;28;20210;-59
2023/03/02 02:07:51;;;;;;;82.30;11.68;;;;;;;;;;4995201;28;20174;-60
2023/03/02 02:10:17;;;;;;;103.40;12.68;;;;;;;;;;4995324;28;20543;-62
2023/03/02 02:12:43;;;;;;;75.50;11.15;;;;;;;;;;4994767;28;20616;-62
2023/03/02 02:15:09;;;;;;;82.72;10.20;;;;;;;;;;4995278;28;20171;-61
2023/03/02 02:17:35;;;;;;;136.02;12.73;;;;;;;;;;4995467;28;20514;-62
2023/03/02 02:20:20;;;;;;;115.15;11.95;;;;;;;;;;4995155;28;20175;-61
2023/03/02 02:23:04;;;;;;;80.97;11.30;;;;;;;;;;4994802;28;20250;-61
2023/03/02 02:25:38;;;;;;;85.35;10.10;;;;;;;;;;4994988;28;20222;-61
2023/03/02 02:28:07;;;;;;;53.47;8.80;;;;;;;;;;4994979;28;20167;-62
2023/03/02 02:30:33;;;;;;;88.40;9.82;;;;;;;;;;4994997;28;20190;-62
2023/03/02 02:33:00;;;;;;;83.03;10.68;;;;;;;;;;4994830;28;20177;-60
2023/03/02 02:35:28;;;;;;;87.25;10.35;;;;;;;;;;4995148;28;20269;-62
2023/03/02 02:37:56;;;;;;;85.38;9.82;;;;;;;;;;4994841;28;20270;-61
2023/03/02 02:40:38;;;;;;;86.63;10.07;;;;;;;;;;4994701;28;20171;-61
2023/03/02 02:43:05;;;;;;;102.53;10.80;;;;;;;;;;4993728;28;20169;-59
2023/03/02 02:45:31;;;;;;;98.65;10.13;;;;;;;;;;4994495;28;20529;-62
2023/03/02 02:47:57;;;;;;;87.18;10.07;;;;;;;;;;4994450;28;20159;-62
2023/03/02 02:50:30;;;;;;;88.03;8.95;;;;;;;;;;4994493;28;20209;-62
2023/03/02 02:53:00;;;;;;;92.70;10.13;;;;;;;;;;4994690;28;20159;-61
2023/03/02 02:55:26;;;;;;;55.72;9.32;;;;;;;;;;4996757;28;20228;-60
2023/03/02 02:57:53;;;;;;;82.43;8.93;;;;;;;;;;4998785;28;20209;-61
2023/03/02 03:00:21;;;;;;;65.80;9.40;;;;;;;;;;4994640;28;20171;-60
2023/03/02 03:02:49;;;;;;;68.20;9.10;;;;;;;;;;4994244;28;20531;-62
2023/03/02 03:05:16;;;;;;;57.40;8.30;;;;;;;;;;4999344;28;20245;-61
2023/03/02 03:07:42;;;;;;;46.15;8.05;;;;;;;;;;5006928;28;20179;-61
2023/03/02 03:10:17;;;;;;;89.50;9.25;;;;;;;;;;5006337;28;20202;-61
2023/03/02 03:12:43;;;;;;;62.22;9.07;;;;;;;;;;4999705;28;20635;-61
2023/03/02 03:15:10;;;;;;;74.43;8.32;;;;;;;;;;5001424;28;20590;-61
2023/03/02 03:17:36;;;;;;;38.22;7.57;;;;;;;;;;4999663;28;20482;-61
2023/03/02 03:20:05;;;;;;;49.78;7.70;;;;;;;;;;5000312;28;20621;-60
2023/03/02 03:22:35;;;;;;;59.10;8.13;;;;;;;;;;4995986;28;20243;-61
2023/03/02 03:25:00;;;;;;;68.18;8.98;;;;;;;;;;4996375;28;20194;-60
2023/03/02 03:27:26;;;;;;;70.72;7.70;;;;;;;;;;4994266;28;20318;-60
2023/03/02 03:29:52;;;;;;;80.05;8.70;;;;;;;;;;4994321;28;20167;-62
2023/03/02 03:32:19;;;;;;;146.25;12.20;;;;;;;;;;4993773;28;20171;-61
2023/03/02 03:34:45;;;;;;;89.05;9.40;;;;;;;;;;4993923;28;20182;-62
2023/03/02 03:37:14;;;;;;;88.80;8.90;;;;;;;;;;4993879;28;20221;-61
2023/03/02 03:39:40;;;;;;;77.78;9.77;;;;;;;;;;4994172;28;20207;-59
2023/03/02 03:42:06;;;;;;;68.88;9.75;;;;;;;;;;4993771;28;20228;-62
2023/03/02 03:44:32;;;;;;;73.35;9.40;;;;;;;;;;4993916;28;20199;-62
2023/03/02 03:46:58;;;;;;;98.65;10.25;;;;;;;;;;4993841;28;20246;-61
2023/03/02 03:49:24;;;;;;;83.65;9.57;;;;;;;;;;4993852;28;20171;-62
2023/03/02 03:51:50;;;;;;;97.40;10.52;;;;;;;;;;4993722;28;20163;-62
2023/03/02 03:54:16;;;;;;;51.40;8.57;;;;;;;;;;4995123;28;20620;-60
2023/03/02 03:56:43;;;;;;;64.07;9.07;;;;;;;;;;4995833;28;20182;-59
2023/03/02 03:59:12;;;;;;;54.70;8.48;;;;;;;;;;4993313;28;20186;-62
2023/03/02 04:01:40;;;;;;;94.40;9.52;;;;;;;;;;4993700;28;20199;-60
2023/03/02 04:04:07;;;;;;;114.88;11.55;;;;;;;;;;4993397;28;20217;-60
2023/03/02 04:06:33;;;;;;;75.43;9.50;;;;;;;;;;4993241;28;20583;-60
2023/03/02 04:09:03;;;;;;;83.03;9.68;;;;;;;;;;4993454;28;20508;-58
2023/03/02 04:11:29;;;;;;;52.38;8.90;;;;;;;;;;4993248;28;20603;-59
2023/03/02 04:13:59;;;;;;;56.45;8.40;;;;;;;;;;4993432;28;20187;-59
2023/03/02 04:16:25;;;;;;;101.75;10.55;;;;;;;;;;4994439;28;20193;-59
2023/03/02 04:18:51;;;;;;;80.32;10.20;;;;;;;;;;4994268;28;20234;-61
2023/03/02 04:21:17;;;;;;;54.80;8.23;;;;;;;;;;4994509;28;20171;-58
2023/03/02 04:23:43;;;;;;;52.45;8.27;;;;;;;;;;4993199;28;20185;-60
2023/03/02 04:26:09;;;;;;;73.07;8.85;;;;;;;;;;4993641;28;20167;-61
2023/03/02 04:28:35;;;;;;;47.97;7.88;;;;;;;;;;4993881;28;20185;-61
2023/03/02 04:31:01;;;;;;;56.63;8.48;;;;;;;;;;4993348;28;20211;-62
2023/03/02 04:33:27;;;;;;;66.95;8.88;;;;;;;;;;4993220;28;20166;-60
2023/03/02 04:35:53;;;;;;;73.30;8.73;;;;;;;;;;4993323;28;20171;-60
2023/03/02 04:38:19;;;;;;;78.53;8.63;;;;;;;;;;4992602;28;20178;-62
2023/03/02 04:40:45;;;;;;;96.80;9.75;;;;;;;;;;4993117;28;20178;-61
2023/03/02 04:43:11;;;;;;;98.65;10.35;;;;;;;;;;4992999;28;20179;-60
2023/03/02 04:45:38;;;;;;;78.97;9.27;;;;;;;;;;4993473;28;20194;-62
2023/03/02 04:48:04;;;;;;;78.57;9.30;;;;;;;;;;4992974;28;20236;-60
2023/03/02 04:50:30;;;;;;;59.88;8.95;;;;;;;;;;4992956;28;20237;-61
2023/03/02 04:52:56;;;;;;;92.30;9.25;;;;;;;;;;4993020;28;20543;-61
2023/03/02 04:55:23;;;;;;;70.35;8.77;;;;;;;;;;4993072;28;20245;-62
2023/03/02 04:57:49;;;;;;;142.35;13.20;;;;;;;;;;4992687;28;20236;-62
2023/03/02 05:00:16;;;;;;;92.35;9.65;;;;;;;;;;4992921;28;20249;-61
2023/03/02 05:02:42;;;;;;;53.47;8.00;;;;;;;;;;4992730;28;20175;-61
2023/03/02 05:05:13;;;;;;;37.30;7.20;;;;;;;;;;4992428;28;20305;-61
2023/03/02 05:07:38;;;;;;;83.28;9.98;;;;;;;;;;4992716;28;20235;-60
2023/03/02 05:10:05;;;;;;;88.88;9.73;;;;;;;;;;4992466;28;20195;-62
2023/03/02 05:12:56;;;;;;;78.38;10.00;;;;;;;;;;4992912;28;20193;-61
2023/03/02 05:15:16;;;;;;;49.20;8.65;;;;;;;;;;4992404;28;20179;-61
2023/03/02 05:17:42;;;;;;;47.33;8.02;;;;;;;;;;4992668;28;20178;-61
2023/03/02 05:20:10;;;;;;;67.72;9.13;;;;;;;;;;4992768;28;20179;-62
2023/03/02 05:22:37;;;;;;;75.07;9.80;;;;;;;;;;4992726;28;20220;-60
2023/03/02 05:25:03;;;;;;;46.92;8.60;;;;;;;;;;4992249;28;20255;-60
2023/03/02 05:27:29;;;;;;;54.63;8.60;;;;;;;;;;4993237;28;20217;-60
2023/03/02 05:29:55;;;;;;;119.72;10.55;;;;;;;;;;4992735;28;20175;-59
2023/03/02 05:32:21;;;;;;;71.97;9.27;;;;;;;;;;4995818;28;20181;-60
2023/03/02 05:34:47;;;;;;;63.90;9.23;;;;;;;;;;4995911;28;20189;-61
2023/03/02 05:37:12;;;;;;;66.45;9.65;;;;;;;;;;4996651;28;20216;-60
2023/03/02 05:39:38;;;;;;;82.43;10.70;;;;;;;;;;4995742;28;20186;-57
2023/03/02 05:42:04;;;;;;;77.32;10.45;;;;;;;;;;4996212;28;20202;-61
2023/03/02 05:44:31;;;;;;;61.75;8.30;;;;;;;;;;4995752;28;20183;-60
2023/03/02 05:46:57;;;;;;;49.53;8.63;;;;;;;;;;4996143;28;20167;-60
2023/03/02 05:49:23;;;;;;;76.03;10.32;;;;;;;;;;4995877;28;20186;-60
2023/03/02 05:51:49;;;;;;;62.78;9.48;;;;;;;;;;4997135;28;20170;-60
2023/03/02 05:54:15;;;;;;;39.53;8.80;;;;;;;;;;5001514;28;20178;-60
2023/03/02 05:56:41;;;;;;;56.40;9.20;;;;;;;;;;4996539;28;20667;-59
2023/03/02 05:59:07;;;;;;;57.05;8.82;;;;;;;;;;4996949;28;20168;-60
2023/03/02 06:01:35;;;;;;;68.32;8.98;;;;;;;;;;4996668;28;20198;-58
2023/03/02 06:04:01;;;;;;;43.83;7.85;;;;;;;;;;4996954;28;20675;-60
2023/03/02 06:06:27;;;;;;;47.20;8.50;;;;;;;;;;4997005;28;20468;-61
2023/03/02 06:08:53;;;;;;;48.85;8.13;;;;;;;;;;4997087;28;20263;-60
2023/03/02 06:11:19;;;;;;;42.70;7.32;;;;;;;;;;4996722;28;20225;-60
2023/03/02 06:13:45;;;;;;;50.85;7.53;;;;;;;;;;4997059;28;20189;-59
2023/03/02 06:16:11;;;;;;;44.95;7.70;;;;;;;;;;4998345;28;20171;-61
2023/03/02 06:18:37;;;;;;;87.55;9.13;;;;;;;;;;4997428;28;20175;-59
2023/03/02 06:21:04;;;;;;;65.55;9.75;;;;;;;;;;4996177;28;20195;-58
2023/03/02 06:23:30;;;;;;;53.47;7.97;;;;;;;;;;4995404;28;20167;-61
2023/03/02 06:25:56;;;;;;;24.15;7.75;;;;;;;;;;4994985;28;20256;-61
2023/03/02 06:28:23;;;;;;;42.45;8.20;;;;;;;;;;4995457;28;20235;-61
2023/03/02 06:30:51;;;;;;;42.75;8.75;;;;;;;;;;4995122;28;20167;-60
2023/03/02 06:33:18;;;;;;;45.67;7.82;;;;;;;;;;4995469;28;20179;-59
2023/03/02 06:35:44;;;;;;;33.78;7.70;;;;;;;;;;4995093;28;20179;-59
2023/03/02 06:38:10;;;;;;;25.95;7.10;;;;;;;;;;4995306;28;20244;-60
2023/03/02 06:40:35;;;;;;;23.77;7.20;;;;;;;;;;4995153;28;20600;-61
2023/03/02 06:43:01;;;;;;;29.50;7.53;;;;;;;;;;4993671;28;20179;-60
2023/03/02 06:45:28;;;;;;;26.35;6.90;;;;;;;;;;4994630;28;20202;-60
2023/03/02 06:47:54;;;;;;;32.95;7.72;;;;;;;;;;4994934;28;20175;-60
2023/03/02 06:50:22;;;;;;;31.15;7.25;;;;;;;;;;5002891;28;20168;-61
2023/03/02 06:52:48;;;;;;;20.98;6.65;;;;;;;;;;5006225;28;20178;-61
2023/03/02 06:55:14;;;;;;;27.77;6.88;;;;;;;;;;5009265;28;20193;-61
2023/03/02 06:57:39;;;;;;;30.95;7.72;;;;;;;;;;5006328;28;20209;-61
2023/03/02 07:00:17;;;;;;;30.10;6.63;;;;;;;;;;5004613;28;20171;-61
2023/03/02 07:02:48;;;;;;;23.33;6.82;;;;;;;;;;5000884;28;20573;-60
2023/03/02 07:05:14;;;;;;;18.67;6.47;;;;;;;;;;4998150;28;20263;-60
2023/03/02 07:07:40;;;;;;;20.45;6.03;;;;;;;;;;4994557;28;20162;-60
2023/03/02 07:10:07;;;;;;;22.92;7.32;;;;;;;;;;4994679;28;20167;-60
2023/03/02 07:12:33;;;;;;;18.60;5.63;;;;;;;;;;4994469;28;20170;-58
2023/03/02 07:14:59;;;;;;;17.70;6.18;;;;;;;;;;4994169;28;20171;-60
2023/03/02 07:17:25;;;;;;;22.10;5.38;;;;;;;;;;5000889;28;20166;-61
2023/03/02 07:19:51;;;;;;;27.05;6.47;;;;;;;;;;4995061;28;20242;-60
2023/03/02 07:22:17;;;;;;;18.90;6.00;;;;;;;;;;4995108;28;20182;-60
2023/03/02 07:24:43;;;;;;;19.63;5.50;;;;;;;;;;4994204;28;20265;-62
2023/03/02 07:27:09;;;;;;;23.65;5.78;;;;;;;;;;4994185;28;20166;-62
2023/03/02 07:29:34;;;;;;;22.77;6.07;;;;;;;;;;4994024;28;20170;-62
2023/03/02 07:32:00;;;;;;;25.08;6.38;;;;;;;;;;4994820;28;20574;-62
2023/03/02 07:34:27;;;;;;;25.02;5.88;;;;;;;;;;4994130;28;20643;-62
2023/03/02 07:36:53;;;;;;;17.45;5.80;;;;;;;;;;4994089;28;20167;-62
2023/03/02 07:39:19;;;;;;;16.80;5.43;;;;;;;;;;4994065;28;20186;-61
2023/03/02 07:41:45;;;;;;;13.98;5.13;;;;;;;;;;4994148;28;20163;-62
2023/03/02 07:44:12;;;;;;;13.35;5.80;;;;;;;;;;4993580;28;20286;-62
2023/03/02 07:46:38;;;;;;;14.93;5.40;;;;;;;;;;4993527;28;20171;-61
2023/03/02 07:49:04;;;;;;;15.90;6.38;;;;;;;;;;4993766;28;20225;-60
2023/03/02 07:51:30;;;;;;;20.13;6.40;;;;;;;;;;4993943;28;20170;-60
2023/03/02 07:53:56;;;;;;;18.10;5.57;;;;;;;;;;4993327;28;20253;-61
2023/03/02 07:56:22;;;;;;;18.85;6.03;;;;;;;;;;4993637;28;20179;-59
2023/03/02 07:58:48;;;;;;;15.95;5.95;;;;;;;;;;4993684;28;20252;-58
2023/03/02 08:01:13;;;;;;;14.40;6.20;;;;;;;;;;4993761;28;20170;-59
2023/03/02 08:03:39;;;;;;;21.95;5.90;;;;;;;;;;4993585;28;20182;-59
2023/03/02 08:06:06;;;;;;;21.83;6.53;;;;;;;;;;4993378;28;20227;-60
2023/03/02 08:08:32;;;;;;;13.38;5.45;;;;;;;;;;4993678;28;20171;-59
2023/03/02 08:11:11;;;;;;;12.73;6.10;;;;;;;;;;4993456;28;20167;-60
2023/03/02 08:13:37;;;;;;;15.98;5.97;;;;;;;;;;4993984;28;20170;-61
2023/03/02 08:16:05;;;;;;;13.50;6.30;;;;;;;;;;4995004;28;20175;-59
2023/03/02 08:18:31;;;;;;;11.98;5.95;;;;;;;;;;4994276;28;20200;-59
2023/03/02 08:20:57;;;;;;;12.32;6.30;;;;;;;;;;4994110;28;20548;-59
2023/03/02 08:23:23;;;;;;;15.75;6.60;;;;;;;;;;4993858;28;20167;-59
2023/03/02 08:25:49;;;;;;;11.40;5.82;;;;;;;;;;4993954;28;20191;-60
2023/03/02 08:28:15;;;;;;;12.68;6.20;;;;;;;;;;4994367;28;20198;-59
2023/03/02 08:30:41;;;;;;;12.65;6.20;;;;;;;;;;4993838;28;20181;-58
2023/03/02 08:33:07;;;;;;;13.48;5.93;;;;;;;;;;4994264;28;20245;-59
2023/03/02 08:35:33;;;;;;;14.75;5.28;;;;;;;;;;4993452;28;20194;-60
2023/03/02 08:37:59;;;;;;;12.65;5.53;;;;;;;;;;4993367;28;20175;-59
2023/03/02 08:40:25;;;;;;;11.30;4.78;;;;;;;;;;4992931;28;20182;-62
2023/03/02 08:42:56;;;;;;;10.02;5.32;;;;;;;;;;4993317;28;20185;-62
2023/03/02 08:45:22;;;;;;;12.07;5.53;;;;;;;;;;4993048;28;20198;-62
2023/03/02 08:47:49;;;;;;;13.43;5.43;;;;;;;;;;4993229;28;20178;-60
2023/03/02 08:50:15;;;;;;;11.57;5.22;;;;;;;;;;4992303;28;20171;-61
2023/03/02 08:52:41;;;;;;;11.10;5.43;;;;;;;;;;4993339;28;20360;-59
2023/03/02 08:55:07;;;;;;;10.45;5.22;;;;;;;;;;4993250;28;20577;-60
2023/03/02 08:57:33;;;;;;;11.43;5.30;;;;;;;;;;4992798;28;20168;-60
2023/03/02 08:59:59;;;;;;;11.02;4.90;;;;;;;;;;4993053;28;20171;-60
2023/03/02 09:02:25;;;;;;;13.88;5.55;;;;;;;;;;4992823;28;20171;-60
2023/03/02 09:04:51;;;;;;;22.20;5.50;;;;;;;;;;4992780;28;20213;-60
2023/03/02 09:07:17;;;;;;;12.55;5.22;;;;;;;;;;4995775;28;20170;-61
2023/03/02 09:09:45;;;;;;;18.00;5.20;;;;;;;;;;4996269;28;20739;-61
2023/03/02 09:12:11;;;;;;;22.00;5.72;;;;;;;;;;4996645;28;20178;-60
2023/03/02 09:14:37;;;;;;;34.72;5.22;;;;;;;;;;4995932;28;20167;-61
2023/03/02 09:17:04;;;;;;;19.75;5.20;;;;;;;;;;4996034;28;20258;-61
2023/03/02 09:19:30;;;;;;;10.77;5.70;;;;;;;;;;4996564;28;20196;-61
2023/03/02 09:21:56;;;;;;;13.70;5.82;;;;;;;;;;4996323;28;20641;-62
2023/03/02 09:24:22;;;;;;;32.75;5.95;;;;;;;;;;4995997;28;20584;-60
2023/03/02 09:26:48;;;;;;;20.60;6.13;;;;;;;;;;4995966;28;20608;-58
2023/03/02 09:29:14;;;;;;;11.93;5.82;;;;;;;;;;4995993;28;20167;-61
2023/03/02 09:31:40;;;;;;;13.80;6.20;;;;;;;;;;4996112;28;20228;-61
2023/03/02 09:34:06;;;;;;;13.30;6.30;;;;;;;;;;4995779;28;20286;-59
2023/03/02 09:36:33;;;;;;;11.18;5.95;;;;;;;;;;4996086;28;20175;-62
2023/03/02 09:38:59;;;;;;;11.27;5.70;;;;;;;;;;4995994;28;20511;-60
2023/03/02 09:41:37;;;;;;;11.57;6.18;;;;;;;;;;4995878;28;20171;-61
2023/03/02 09:44:15;;;;;;;12.05;5.90;;;;;;;;;;4995523;28;20170;-62
2023/03/02 09:46:56;;;;;;;13.43;6.75;;;;;;;;;;4996025;28;20245;-62
2023/03/02 09:49:43;;;;;;;10.75;6.05;;;;;;;;;;4995525;28;20171;-60
2023/03/02 09:52:29;;;;;;;15.60;6.68;;;;;;;;;;4995597;28;20171;-62
2023/03/02 09:54:56;;;;;;;9.43;6.00;;;;;;;;;;4995603;28;20534;-61
2023/03/02 09:57:30;;;;;;;10.40;6.57;;;;;;;;;;4995548;28;20171;-57
2023/03/02 10:00:01;;;;;;;14.00;6.85;;;;;;;;;;4995627;28;20167;-60
2023/03/02 10:02:46;;;;;;;13.32;6.90;;;;;;;;;;4995512;28;20183;-59
2023/03/02 10:05:15;;;;;;;11.10;6.55;;;;;;;;;;4995184;28;20210;-61
2023/03/02 10:07:41;;;;;;;28.25;7.25;;;;;;;;;;4995165;28;20187;-62
2023/03/02 10:10:25;;;;;;;19.42;6.55;;;;;;;;;;4995392;28;20187;-61
2023/03/02 10:12:51;;;;;;;24.00;6.25;;;;;;;;;;4995353;28;20163;-59
2023/03/02 10:15:23;;;;;;;27.15;7.28;;;;;;;;;;4995317;28;20494;-61
2023/03/02 10:17:53;;;;;;;16.73;6.55;;;;;;;;;;4994911;28;20167;-60
2023/03/02 10:20:43;;;;;;;16.27;6.75;;;;;;;;;;4995236;28;20186;-61
2023/03/02 10:23:19;;;;;;;10.65;6.00;;;;;;;;;;4995195;28;20228;-59
2023/03/02 10:25:46;;;;;;;15.70;7.05;;;;;;;;;;4995169;28;20194;-61
2023/03/02 10:28:12;;;;;;;17.50;7.30;;;;;;;;;;4994988;28;20255;-59
2023/03/02 10:30:38;;;;;;;20.05;6.85;;;;;;;;;;4996689;28;20674;-62
2023/03/02 10:33:15;;;;;;;14.55;6.85;;;;;;;;;;4996470;28;20270;-62
2023/03/02 10:35:45;;;;;;;19.20;7.03;;;;;;;;;;4996951;28;20185;-62
2023/03/02 10:38:22;;;;;;;18.65;6.53;;;;;;;;;;4996935;28;20189;-61
2023/03/02 10:40:49;;;;;;;12.43;6.40;;;;;;;;;;4996925;28;20246;-61
2023/03/02 10:43:20;;;;;;;14.93;6.53;;;;;;;;;;4996576;28;20189;-62
2023/03/02 10:45:56;;;;;;;22.48;6.40;;;;;;;;;;4995722;28;20199;-60
2023/03/02 10:48:23;;;;;;;11.30;6.35;;;;;;;;;;4994950;28;20170;-60
2023/03/02 10:50:52;;;;;;;10.93;6.60;;;;;;;;;;4994927;28;20535;-60
2023/03/02 10:53:18;;;;;;;11.65;6.15;;;;;;;;;;4995695;28;20163;-61
2023/03/02 10:55:49;;;;;;;9.57;5.63;;;;;;;;;;4994945;28;20183;-61
2023/03/02 10:58:22;;;;;;;11.73;6.68;;;;;;;;;;4995052;28;20170;-61
2023/03/02 11:00:56;;;;;;;12.82;6.60;;;;;;;;;;4994544;28;20628;-61
2023/03/02 11:03:22;;;;;;;15.23;7.05;;;;;;;;;;4994480;28;20693;-61
2023/03/02 11:05:49;;;;;;;14.40;7.18;;;;;;;;;;4993932;28;20638;-61
2023/03/02 11:08:22;;;;;;;12.40;6.47;;;;;;;;;;4994400;28;20167;-61
2023/03/02 11:10:51;;;;;;;13.80;6.68;;;;;;;;;;4994104;28;20220;-62
2023/03/02 11:13:17;;;;;;;12.68;7.38;;;;;;;;;;4994444;28;20181;-61
2023/03/02 11:15:48;;;;;;;13.48;7.47;;;;;;;;;;4994131;28;20175;-63
2023/03/02 11:18:17;;;;;;;14.98;8.20;;;;;;;;;;4994175;28;20246;-60
2023/03/02 11:20:44;;;;;;;20.85;7.70;;;;;;;;;;4994232;28;20167;-60
2023/03/02 11:23:20;;;;;;;15.93;7.68;;;;;;;;;;4994757;28;20217;-59
2023/03/02 11:25:55;;;;;;;14.25;7.72;;;;;;;;;;4994714;28;20186;-61
2023/03/02 11:28:21;;;;;;;13.18;7.22;;;;;;;;;;4994052;28;20693;-61
2023/03/02 11:30:49;;;;;;;12.23;7.13;;;;;;;;;;4994130;28;20198;-62
2023/03/02 11:33:20;;;;;;;21.00;8.38;;;;;;;;;;4993886;28;20204;-61
2023/03/02 11:35:53;;;;;;;15.68;9.27;;;;;;;;;;4994511;28;20162;-62
2023/03/02 11:38:31;;;;;;;14.07;8.18;;;;;;;;;;4994773;28;20186;-60
2023/03/02 11:40:59;;;;;;;15.07;7.95;;;;;;;;;;4996454;28;20175;-60
